createdAt,value
2022-10-08T00:02:05.560Z,10.60
2022-10-08T00:04:33.857Z,10.60
2022-10-08T00:07:01.847Z,10.50
2022-10-08T00:09:31.533Z,10.50
2022-10-08T00:11:59.510Z,10.50
2022-10-08T00:14:27.759Z,10.40
2022-10-08T00:16:55.709Z,10.40
2022-10-08T00:19:24.137Z,10.30
2022-10-08T00:21:56.858Z,10.30
2022-10-08T00:24:25.848Z,10.30
2022-10-08T00:26:55.180Z,10.30
2022-10-08T00:29:23.544Z,10.30
2022-10-08T00:31:52.666Z,10.30
2022-10-08T00:34:23.214Z,10.30
2022-10-08T00:36:53.173Z,10.20
2022-10-08T00:39:23.913Z,10.20
2022-10-08T00:41:54.139Z,10.10
2022-10-08T00:44:56.376Z,10.10
2022-10-08T00:47:33.076Z,10.10
2022-10-08T00:50:06.179Z,10.10
2022-10-08T00:52:38.537Z,10.10
2022-10-08T00:55:08.709Z,10.10
2022-10-08T00:57:38.976Z,10.10
2022-10-08T01:00:11.412Z,10.10
2022-10-08T01:02:40.108Z,10.10
2022-10-08T01:05:09.569Z,10.20
2022-10-08T01:07:45.809Z,10.30
2022-10-08T01:10:21.976Z,10.30
2022-10-08T01:13:02.945Z,10.20
2022-10-08T01:15:37.418Z,10.30
2022-10-08T01:18:15.098Z,10.30
2022-10-08T01:20:53.064Z,10.30
2022-10-08T01:23:50.810Z,10.30
2022-10-08T01:26:42.332Z,10.30
2022-10-08T01:29:17.329Z,10.30
2022-10-08T01:31:48.072Z,10.40
2022-10-08T01:34:22.060Z,10.50
2022-10-08T01:36:53.173Z,10.60
2022-10-08T01:39:26.913Z,10.70
2022-10-08T01:41:57.348Z,10.80
2022-10-08T01:44:32.858Z,10.90
2022-10-08T01:47:05.305Z,10.90
2022-10-08T01:49:42.277Z,11.00
2022-10-08T01:52:14.702Z,11.10
2022-10-08T01:54:46.348Z,11.10
2022-10-08T01:57:14.817Z,11.10
2022-10-08T01:59:47.851Z,11.00
2022-10-08T02:02:19.505Z,11.00
2022-10-08T02:04:49.489Z,10.90
2022-10-08T02:07:20.394Z,10.90
2022-10-08T02:09:52.314Z,10.90
2022-10-08T02:12:22.979Z,10.90
2022-10-08T02:14:56.024Z,10.90
2022-10-08T02:17:29.889Z,10.90
2022-10-08T02:20:01.559Z,11.00
2022-10-08T02:22:34.326Z,11.00
2022-10-08T02:25:07.773Z,11.00
2022-10-08T02:27:49.249Z,11.00
2022-10-08T02:30:19.025Z,11.00
2022-10-08T02:32:51.357Z,11.00
2022-10-08T02:35:25.613Z,11.00
2022-10-08T02:37:56.505Z,11.00
2022-10-08T02:40:26.047Z,11.00
2022-10-08T02:43:06.329Z,11.00
2022-10-08T02:45:43.228Z,11.00
2022-10-08T02:48:18.397Z,11.00
2022-10-08T02:50:50.252Z,11.00
2022-10-08T02:53:18.709Z,11.10
2022-10-08T02:55:55.432Z,11.20
2022-10-08T02:58:23.881Z,11.30
2022-10-08T03:01:00.660Z,11.30
2022-10-08T03:03:33.642Z,11.40
2022-10-08T03:08:52.695Z,11.50
2022-10-08T03:11:20.855Z,11.60
2022-10-08T03:13:51.068Z,11.60
2022-10-08T03:16:23.784Z,11.60
2022-10-08T03:18:53.249Z,11.70
2022-10-08T03:21:21.713Z,11.70
2022-10-08T03:23:50.148Z,11.70
2022-10-08T03:26:18.829Z,11.80
2022-10-08T03:28:47.068Z,11.80
2022-10-08T03:31:15.280Z,11.90
2022-10-08T03:33:44.613Z,11.90
2022-10-08T03:36:12.804Z,11.90
2022-10-08T03:38:41.014Z,11.90
2022-10-08T03:41:10.360Z,12.00
2022-10-08T03:43:38.900Z,12.00
2022-10-08T03:46:07.182Z,12.00
2022-10-08T03:48:35.670Z,12.00
2022-10-08T03:51:08.575Z,12.10
2022-10-08T03:53:38.669Z,12.10
2022-10-08T03:56:08.943Z,12.10
2022-10-08T03:58:37.241Z,12.10
2022-10-08T04:01:07.909Z,12.10
2022-10-08T04:03:36.976Z,12.10
2022-10-08T04:06:06.894Z,12.10
2022-10-08T04:08:35.482Z,12.10
2022-10-08T04:11:04.986Z,12.20
2022-10-08T04:13:33.047Z,12.20
2022-10-08T04:16:02.822Z,12.20
2022-10-08T04:18:31.515Z,12.20
2022-10-08T04:21:00.032Z,12.20
2022-10-08T04:23:30.156Z,12.20
2022-10-08T04:25:58.378Z,12.20
2022-10-08T04:28:26.424Z,12.20
2022-10-08T04:30:59.016Z,12.20
2022-10-08T04:33:27.617Z,12.20
2022-10-08T04:36:00.075Z,12.20
2022-10-08T04:38:30.241Z,12.30
2022-10-08T04:41:06.557Z,12.20
2022-10-08T04:43:35.248Z,12.20
2022-10-08T04:46:03.387Z,12.20
2022-10-08T04:48:31.611Z,12.20
2022-10-08T04:51:04.865Z,12.10
2022-10-08T04:53:35.355Z,12.10
2022-10-08T04:56:10.242Z,12.10
2022-10-08T04:58:38.347Z,12.00
2022-10-08T05:01:07.145Z,12.00
2022-10-08T05:03:38.371Z,12.00
2022-10-08T05:06:07.196Z,12.00
2022-10-08T05:08:37.622Z,12.00
2022-10-08T05:11:07.836Z,12.00
2022-10-08T05:13:36.066Z,12.00
2022-10-08T05:16:05.696Z,12.00
2022-10-08T05:18:34.338Z,12.00
2022-10-08T05:21:06.628Z,12.00
2022-10-08T05:23:36.316Z,12.00
2022-10-08T05:26:12.824Z,12.00
2022-10-08T05:28:40.952Z,12.00
2022-10-08T05:31:09.003Z,12.00
2022-10-08T05:33:37.565Z,11.90
2022-10-08T05:36:06.542Z,11.90
2022-10-08T05:38:36.680Z,11.90
2022-10-08T05:41:12.777Z,12.00
2022-10-08T05:43:41.477Z,11.90
2022-10-08T05:46:09.929Z,12.00
2022-10-08T05:48:39.005Z,11.90
2022-10-08T05:51:09.053Z,11.90
2022-10-08T05:53:39.513Z,11.90
2022-10-08T05:56:09.360Z,11.90
2022-10-08T05:58:39.591Z,11.80
2022-10-08T06:01:09.840Z,11.70
2022-10-08T06:03:37.895Z,11.60
2022-10-08T06:06:08.235Z,11.50
2022-10-08T06:08:38.393Z,11.40
2022-10-08T06:11:07.477Z,11.30
2022-10-08T06:13:35.906Z,11.20
2022-10-08T06:16:05.598Z,11.20
2022-10-08T06:18:35.341Z,11.10
2022-10-08T06:21:04.793Z,11.00
2022-10-08T06:23:33.267Z,10.90
2022-10-08T06:26:04.848Z,10.90
2022-10-08T06:28:34.877Z,10.90
2022-10-08T06:31:02.973Z,10.90
2022-10-08T06:33:31.328Z,10.90
2022-10-08T06:36:04.125Z,10.90
2022-10-08T06:38:32.577Z,10.90
2022-10-08T06:41:01.171Z,11.00
2022-10-08T06:43:30.783Z,11.10
2022-10-08T06:46:00.183Z,11.50
2022-10-08T06:48:28.442Z,12.20
2022-10-08T06:51:00.229Z,13.00
2022-10-08T06:53:28.387Z,13.60
2022-10-08T06:56:00.255Z,13.90
2022-10-08T06:58:28.402Z,14.00
2022-10-08T07:01:05.662Z,14.00
2022-10-08T07:03:34.080Z,14.10
2022-10-08T07:06:03.142Z,14.10
2022-10-08T07:08:31.961Z,14.10
2022-10-08T07:11:05.279Z,14.10
2022-10-08T07:13:33.331Z,14.10
2022-10-08T07:16:08.741Z,14.00
2022-10-08T07:18:38.116Z,14.10
2022-10-08T07:21:06.948Z,14.10
2022-10-08T07:23:35.541Z,14.10
2022-10-08T07:26:05.837Z,14.10
2022-10-08T07:28:36.420Z,14.20
2022-10-08T07:31:07.048Z,14.20
2022-10-08T07:33:35.952Z,14.30
2022-10-08T07:36:08.595Z,14.30
2022-10-08T07:38:36.750Z,14.40
2022-10-08T07:41:04.911Z,14.40
2022-10-08T07:43:33.104Z,14.50
2022-10-08T07:46:01.246Z,14.60
2022-10-08T07:48:34.107Z,14.70
2022-10-08T07:51:11.120Z,14.80
2022-10-08T07:53:40.086Z,15.00
2022-10-08T07:56:09.736Z,15.20
2022-10-08T07:58:38.151Z,15.40
2022-10-08T08:01:08.690Z,15.50
2022-10-08T08:03:38.656Z,15.70
2022-10-08T08:06:09.563Z,16.00
2022-10-08T08:08:39.213Z,16.50
2022-10-08T08:11:08.851Z,17.00
2022-10-08T08:13:39.649Z,17.40
2022-10-08T08:16:10.169Z,17.60
2022-10-08T08:18:41.277Z,17.80
2022-10-08T08:21:11.459Z,18.00
2022-10-08T08:23:41.171Z,18.20
2022-10-08T08:26:11.562Z,18.40
2022-10-08T08:28:40.462Z,18.70
2022-10-08T08:31:10.429Z,18.90
2022-10-08T08:33:40.178Z,19.10
2022-10-08T08:36:08.531Z,19.20
2022-10-08T08:38:37.361Z,19.60
2022-10-08T08:41:20.725Z,20.10
2022-10-08T08:43:49.492Z,20.80
2022-10-08T08:46:22.090Z,21.50
2022-10-08T08:48:54.444Z,22.20
2022-10-08T08:51:22.497Z,22.90
2022-10-08T08:53:50.813Z,23.70
2022-10-08T08:56:22.754Z,24.10
2022-10-08T08:58:58.716Z,24.50
2022-10-08T09:01:33.984Z,25.00
2022-10-08T09:04:10.875Z,25.50
2022-10-08T09:06:40.629Z,25.70
2022-10-08T09:09:21.464Z,26.10
2022-10-08T09:11:49.938Z,26.60
2022-10-08T09:14:33.257Z,27.20
2022-10-08T09:17:09.975Z,28.40
2022-10-08T09:19:41.069Z,29.40
2022-10-08T09:22:20.540Z,30.60
2022-10-08T09:24:51.123Z,31.40
2022-10-08T09:27:19.191Z,31.80
2022-10-08T09:29:47.663Z,32.40
2022-10-08T09:32:18.289Z,33.70
2022-10-08T09:34:49.301Z,34.20
2022-10-08T09:37:23.144Z,33.80
2022-10-08T09:40:11.912Z,32.10
2022-10-08T09:42:43.146Z,29.80
2022-10-08T09:45:33.860Z,27.40
2022-10-08T09:48:18.913Z,24.70
2022-10-08T09:50:58.613Z,23.10
2022-10-08T09:53:29.954Z,22.00
2022-10-08T09:56:00.890Z,21.60
2022-10-08T09:58:33.153Z,23.30
2022-10-08T10:01:07.306Z,26.60
2022-10-08T10:03:37.137Z,29.60
2022-10-08T10:06:07.042Z,30.00
2022-10-08T10:08:51.760Z,29.00
2022-10-08T10:11:26.704Z,27.40
2022-10-08T10:13:57.268Z,25.60
2022-10-08T10:16:29.290Z,24.20
2022-10-08T10:19:01.135Z,23.30
2022-10-08T10:21:37.378Z,24.10
2022-10-08T10:24:19.661Z,26.00
2022-10-08T10:26:49.635Z,28.80
2022-10-08T10:29:22.197Z,32.00
2022-10-08T10:31:55.463Z,34.60
2022-10-08T10:34:26.416Z,36.90
2022-10-08T10:36:58.545Z,37.70
2022-10-08T10:39:39.422Z,38.60
2022-10-08T10:42:15.389Z,39.10
2022-10-08T10:44:53.496Z,39.90
2022-10-08T10:47:27.097Z,39.40
2022-10-08T10:49:59.263Z,37.40
2022-10-08T10:52:40.575Z,34.90
2022-10-08T10:55:22.678Z,32.10
2022-10-08T10:58:09.962Z,29.40
2022-10-08T11:00:48.314Z,27.20
2022-10-08T11:03:24.358Z,25.50
2022-10-08T11:05:58.940Z,24.20
2022-10-08T11:08:36.873Z,24.30
2022-10-08T11:11:18.594Z,26.50
2022-10-08T11:13:59.998Z,29.60
2022-10-08T11:16:40.894Z,32.80
2022-10-08T11:19:20.269Z,35.30
2022-10-08T11:21:58.606Z,37.30
2022-10-08T11:24:43.882Z,38.90
2022-10-08T11:27:23.892Z,40.20
2022-10-08T11:30:00.837Z,40.80
2022-10-08T11:32:30.315Z,41.40
2022-10-08T11:35:14.711Z,41.00
2022-10-08T11:37:47.881Z,39.40
2022-10-08T11:40:28.004Z,39.10
2022-10-08T11:43:03.174Z,39.60
2022-10-08T11:45:43.150Z,40.50
2022-10-08T11:48:34.105Z,41.00
2022-10-08T11:51:49.986Z,40.90
2022-10-08T11:54:25.577Z,38.90
2022-10-08T11:57:14.209Z,38.00
2022-10-08T11:59:44.114Z,38.40
2022-10-08T12:02:26.399Z,38.90
2022-10-08T12:04:56.309Z,39.50
2022-10-08T12:07:35.360Z,39.90
2022-10-08T12:10:29.499Z,40.40
2022-10-08T12:13:31.274Z,40.70
2022-10-08T12:16:05.042Z,41.00
2022-10-08T12:18:44.076Z,41.30
2022-10-08T12:21:52.052Z,41.20
2022-10-08T12:24:59.065Z,41.10
2022-10-08T12:27:39.224Z,40.60
2022-10-08T12:30:11.358Z,40.30
2022-10-08T12:32:56.956Z,39.20
2022-10-08T12:35:31.253Z,38.60
2022-10-08T12:38:22.023Z,37.30
2022-10-08T12:40:59.292Z,35.20
2022-10-08T12:43:34.718Z,33.60
2022-10-08T12:46:18.668Z,31.80
2022-10-08T12:48:52.067Z,29.80
2022-10-08T12:51:26.796Z,28.20
2022-10-08T12:53:55.384Z,26.70
2022-10-08T12:56:28.145Z,25.40
2022-10-08T12:58:59.740Z,24.30
2022-10-08T13:01:29.919Z,23.70
2022-10-08T13:04:17.185Z,24.10
2022-10-08T13:06:45.736Z,25.40
2022-10-08T13:09:27.086Z,26.80
2022-10-08T13:12:00.697Z,27.40
2022-10-08T13:14:32.624Z,27.40
2022-10-08T13:17:02.413Z,27.50
2022-10-08T13:19:32.772Z,27.50
2022-10-08T13:22:02.586Z,27.40
2022-10-08T13:24:41.918Z,27.40
2022-10-08T13:27:27.418Z,27.70
2022-10-08T13:29:55.733Z,27.60
2022-10-08T13:32:26.775Z,27.10
2022-10-08T13:34:56.786Z,26.10
2022-10-08T13:37:34.904Z,24.70
2022-10-08T13:40:05.761Z,23.30
2022-10-08T13:42:36.539Z,22.10
2022-10-08T13:45:06.299Z,21.20
2022-10-08T13:47:35.813Z,20.70
2022-10-08T13:50:03.995Z,20.30
2022-10-08T13:52:34.954Z,19.90
2022-10-08T13:55:07.665Z,19.50
2022-10-08T13:57:35.631Z,19.10
2022-10-08T14:00:05.661Z,18.80
2022-10-08T14:02:35.023Z,18.40
2022-10-08T14:05:03.216Z,18.10
2022-10-08T14:07:33.959Z,17.80
2022-10-08T14:10:03.896Z,17.60
2022-10-08T14:12:34.387Z,17.40
2022-10-08T14:15:02.826Z,17.10
2022-10-08T14:17:30.996Z,16.90
2022-10-08T14:20:00.756Z,16.80
2022-10-08T14:22:29.004Z,16.70
2022-10-08T14:24:57.076Z,16.50
2022-10-08T14:27:25.425Z,16.50
2022-10-08T14:29:53.403Z,16.40
2022-10-08T14:32:21.566Z,16.30
2022-10-08T14:34:49.873Z,16.30
2022-10-08T14:37:19.460Z,16.40
2022-10-08T14:39:47.436Z,16.50
2022-10-08T14:42:15.652Z,16.70
2022-10-08T14:44:43.742Z,16.70
2022-10-08T14:47:11.874Z,16.70
2022-10-08T14:49:40.066Z,16.60
2022-10-08T14:52:08.193Z,16.60
2022-10-08T14:54:37.753Z,16.50
2022-10-08T14:57:05.769Z,16.40
2022-10-08T14:59:37.625Z,16.40
2022-10-08T15:02:09.932Z,16.20
2022-10-08T15:04:38.201Z,16.10
2022-10-08T15:07:06.711Z,15.90
2022-10-08T15:09:37.245Z,15.70
2022-10-08T15:12:06.747Z,15.60
2022-10-08T15:14:38.104Z,15.50
2022-10-08T15:17:06.547Z,15.40
2022-10-08T15:19:35.411Z,15.40
2022-10-08T15:22:03.545Z,15.30
2022-10-08T15:24:31.527Z,15.30
2022-10-08T15:26:59.695Z,15.30
2022-10-08T15:29:29.087Z,15.20
2022-10-08T15:31:57.467Z,15.20
2022-10-08T15:34:25.546Z,15.10
2022-10-08T15:36:55.335Z,15.10
2022-10-08T15:39:23.763Z,15.00
2022-10-08T15:41:53.237Z,15.00
2022-10-08T15:44:22.577Z,14.90
2022-10-08T15:46:59.601Z,14.90
2022-10-08T15:49:31.237Z,14.80
2022-10-08T15:51:59.924Z,14.80
2022-10-08T15:54:28.533Z,14.70
2022-10-08T15:56:56.841Z,14.60
2022-10-08T15:59:25.080Z,14.50
2022-10-08T16:01:54.498Z,14.40
2022-10-08T16:04:22.866Z,14.30
2022-10-08T16:06:50.893Z,14.20
2022-10-08T16:09:21.501Z,14.10
2022-10-08T16:11:49.860Z,14.00
2022-10-08T16:14:20.291Z,13.90
2022-10-08T16:16:49.144Z,13.80
2022-10-08T16:19:21.274Z,13.60
2022-10-08T16:21:51.280Z,13.50
2022-10-08T16:24:20.635Z,13.40
2022-10-08T16:26:49.347Z,13.30
2022-10-08T16:29:19.155Z,13.20
2022-10-08T16:31:47.837Z,13.10
2022-10-08T16:34:18.925Z,13.00
2022-10-08T16:36:48.507Z,12.90
2022-10-08T16:39:19.003Z,12.80
2022-10-08T16:41:47.552Z,12.70
2022-10-08T16:44:17.202Z,12.60
2022-10-08T16:46:48.560Z,12.60
2022-10-08T16:49:24.169Z,12.50
2022-10-08T16:51:54.594Z,12.50
2022-10-08T16:54:22.852Z,12.40
2022-10-08T16:56:51.362Z,12.30
2022-10-08T16:59:21.837Z,12.30
2022-10-08T17:01:52.009Z,12.30
2022-10-08T17:04:23.514Z,12.20
2022-10-08T17:06:51.914Z,12.10
2022-10-08T17:09:20.558Z,12.10
2022-10-08T17:11:49.101Z,12.00
2022-10-08T17:14:17.338Z,11.90
2022-10-08T17:16:45.829Z,11.90
2022-10-08T17:19:14.737Z,11.90
2022-10-08T17:21:44.600Z,11.80
2022-10-08T17:24:13.141Z,11.80
2022-10-08T17:26:41.822Z,11.80
2022-10-08T17:29:12.047Z,11.80
2022-10-08T17:31:40.489Z,11.70
2022-10-08T17:34:09.422Z,11.70
2022-10-08T17:36:39.484Z,11.70
2022-10-08T17:39:12.550Z,11.60
2022-10-08T17:41:41.743Z,11.50
2022-10-08T17:44:11.403Z,11.50
2022-10-08T17:46:42.878Z,11.40
2022-10-08T17:49:10.869Z,11.30
2022-10-08T17:51:39.568Z,11.30
2022-10-08T17:54:13.205Z,11.20
2022-10-08T17:56:41.311Z,11.20
2022-10-08T17:59:09.732Z,11.10
2022-10-08T18:01:41.457Z,11.10
2022-10-08T18:04:15.451Z,11.00
2022-10-08T18:06:46.194Z,11.00
2022-10-08T18:09:18.324Z,11.00
2022-10-08T18:11:48.870Z,11.00
2022-10-08T18:14:17.388Z,10.90
2022-10-08T18:16:48.144Z,10.90
2022-10-08T18:19:18.545Z,10.90
2022-10-08T18:21:46.829Z,10.80
2022-10-08T18:24:17.239Z,10.80
2022-10-08T18:26:45.374Z,10.80
2022-10-08T18:29:14.817Z,10.70
2022-10-08T18:31:44.913Z,10.70
2022-10-08T18:34:14.852Z,10.70
2022-10-08T18:36:43.427Z,10.60
2022-10-08T18:39:13.387Z,10.60
2022-10-08T18:41:44.773Z,10.60
2022-10-08T18:44:15.528Z,10.50
2022-10-08T18:46:44.821Z,10.50
2022-10-08T18:49:14.482Z,10.50
2022-10-08T18:51:42.613Z,10.50
2022-10-08T18:54:11.739Z,10.50
2022-10-08T18:56:41.293Z,10.40
2022-10-08T18:59:14.714Z,10.40
2022-10-08T19:01:44.801Z,10.40
2022-10-08T19:04:14.620Z,10.40
2022-10-08T19:06:45.056Z,10.30
2022-10-08T19:09:13.637Z,10.30
2022-10-08T19:11:45.222Z,10.30
2022-10-08T19:14:16.978Z,10.20
2022-10-08T19:16:46.212Z,10.20
2022-10-08T19:19:16.255Z,10.20
2022-10-08T19:21:44.640Z,10.10
2022-10-08T19:24:14.890Z,10.10
2022-10-08T19:26:43.363Z,10.10
2022-10-08T19:29:17.788Z,10.10
2022-10-08T19:31:47.560Z,10.10
2022-10-08T19:34:18.118Z,10.00
2022-10-08T19:36:46.452Z,10.00
2022-10-08T19:39:16.774Z,10.00
2022-10-08T19:41:45.587Z,9.90
2022-10-08T19:44:14.533Z,9.90
2022-10-08T19:46:44.492Z,9.90
2022-10-08T19:49:13.486Z,9.80
2022-10-08T19:51:42.510Z,9.80
2022-10-08T19:54:11.486Z,9.70
2022-10-08T19:56:40.185Z,9.70
2022-10-08T19:59:08.494Z,9.70
2022-10-08T20:01:38.016Z,9.60
2022-10-08T20:04:09.527Z,9.60
2022-10-08T20:06:40.463Z,9.60
2022-10-08T20:09:11.905Z,9.50
2022-10-08T20:11:41.189Z,9.50
2022-10-08T20:14:09.417Z,9.50
2022-10-08T20:16:39.559Z,9.40
2022-10-08T20:19:14.954Z,9.40
2022-10-08T20:21:43.113Z,9.40
2022-10-08T20:24:11.602Z,9.30
2022-10-08T20:26:42.094Z,9.30
2022-10-08T20:29:12.449Z,9.30
2022-10-08T20:31:42.671Z,9.20
2022-10-08T20:34:14.579Z,9.20
2022-10-08T20:36:42.634Z,9.20
2022-10-08T20:39:12.310Z,9.10
2022-10-08T20:41:40.307Z,9.10
2022-10-08T20:44:08.955Z,9.20
2022-10-08T20:46:38.047Z,9.10
2022-10-08T20:49:07.316Z,9.10
2022-10-08T20:51:39.917Z,9.10
2022-10-08T20:54:09.767Z,9.10
2022-10-08T20:56:40.555Z,9.00
2022-10-08T20:59:09.211Z,9.00
2022-10-08T21:01:39.180Z,9.00
2022-10-08T21:04:08.584Z,8.90
2022-10-08T21:06:40.117Z,8.90
2022-10-08T21:09:08.870Z,8.90
2022-10-08T21:11:38.113Z,8.90
2022-10-08T21:14:07.472Z,8.80
2022-10-08T21:16:37.876Z,8.80
2022-10-08T21:19:08.356Z,8.80
2022-10-08T21:21:37.782Z,8.80
2022-10-08T21:24:06.401Z,8.70
2022-10-08T21:26:36.630Z,8.70
2022-10-08T21:29:06.549Z,8.60
2022-10-08T21:31:36.515Z,8.60
2022-10-08T21:34:05.126Z,8.60
2022-10-08T21:36:35.492Z,8.60
2022-10-08T21:39:06.799Z,8.50
2022-10-08T21:41:36.913Z,8.50
2022-10-08T21:44:06.774Z,8.50
2022-10-08T21:46:37.645Z,8.50
2022-10-08T21:49:07.855Z,8.40
2022-10-08T21:51:36.375Z,8.40
2022-10-08T21:54:07.181Z,8.40
2022-10-08T21:56:37.064Z,8.40
2022-10-08T21:59:07.313Z,8.30
2022-10-08T22:01:37.490Z,8.30
2022-10-08T22:04:08.516Z,8.30
2022-10-08T22:06:39.753Z,8.30
2022-10-08T22:09:11.650Z,8.30
2022-10-08T22:11:40.128Z,8.20
2022-10-08T22:14:08.579Z,8.20
2022-10-08T22:16:37.212Z,8.20
2022-10-08T22:19:05.364Z,8.20
2022-10-08T22:21:33.693Z,8.10
2022-10-08T22:24:01.892Z,8.10
2022-10-08T22:26:33.039Z,8.10
2022-10-08T22:29:01.217Z,8.10
2022-10-08T22:31:29.704Z,8.00
2022-10-08T22:33:58.143Z,8.00
2022-10-08T22:36:28.379Z,8.00
2022-10-08T22:38:57.512Z,7.90
2022-10-08T22:41:27.403Z,7.90
2022-10-08T22:43:57.298Z,7.90
2022-10-08T22:46:27.584Z,7.90
2022-10-08T22:48:58.382Z,7.90
2022-10-08T22:51:26.716Z,7.80
2022-10-08T22:53:54.918Z,7.80
2022-10-08T22:56:24.701Z,7.80
2022-10-08T22:58:53.370Z,7.80
2022-10-08T23:01:25.129Z,7.80
2022-10-08T23:03:54.136Z,7.80
2022-10-08T23:06:24.087Z,7.70
2022-10-08T23:08:55.468Z,7.70
2022-10-08T23:11:23.601Z,7.70
2022-10-08T23:13:53.114Z,7.70
2022-10-08T23:16:23.022Z,7.70
2022-10-08T23:18:55.168Z,7.70
2022-10-08T23:21:24.052Z,7.60
2022-10-08T23:23:53.713Z,7.60
2022-10-08T23:26:23.077Z,7.60
2022-10-08T23:28:52.243Z,7.60
2022-10-08T23:31:24.075Z,7.60
2022-10-08T23:33:53.628Z,7.60
2022-10-08T23:36:23.260Z,7.60
2022-10-08T23:38:51.885Z,7.60
2022-10-08T23:41:20.563Z,7.50
2022-10-08T23:43:50.409Z,7.50
2022-10-08T23:46:21.607Z,7.50
2022-10-08T23:48:52.033Z,7.50
2022-10-08T23:51:21.547Z,7.50
2022-10-08T23:53:51.014Z,7.50
2022-10-08T23:56:20.307Z,7.50
2022-10-08T23:58:48.527Z,7.40
